Time;durP1;ratioP1;P1;durP2;ratioP2;P2;SDS_P1;SDS_P2;PMS_P1;PMS_P2;Temp;Humidity;BMP_temperature;BMP_pressure;BME280_temperature;BME280_humidity;BME280_pressure;Samples;Min_cycle;Max_cycle;Signal;HPM_P1;HPM_P2
2021/01/08 00:00:50;;;;;;;14.77;6.13;;;;;;;;;;5012595;28;20083;-86
2021/01/08 00:03:16;;;;;;;11.82;5.72;;;;;;;;;;5018627;28;20036;-86
2021/01/08 00:05:42;;;;;;;14.75;5.95;;;;;;;;;;5029309;28;20438;-86
2021/01/08 00:08:09;;;;;;;17.63;6.25;;;;;;;;;;5022162;28;20395;-87
2021/01/08 00:10:35;;;;;;;12.70;5.05;;;;;;;;;;4994653;28;20026;-86
2021/01/08 00:13:02;;;;;;;13.27;6.65;;;;;;;;;;5011437;28;20027;-86
2021/01/08 00:15:28;;;;;;;9.82;5.68;;;;;;;;;;4994364;28;20060;-87
2021/01/08 00:17:54;;;;;;;13.15;6.50;;;;;;;;;;4997649;28;20026;-86
2021/01/08 00:20:20;;;;;;;16.23;4.82;;;;;;;;;;5019665;28;20019;-86
2021/01/08 00:22:46;;;;;;;19.40;6.85;;;;;;;;;;4994399;28;20030;-86
2021/01/08 00:25:13;;;;;;;11.88;5.53;;;;;;;;;;5011666;28;20029;-86
2021/01/08 00:27:39;;;;;;;9.82;4.80;;;;;;;;;;5028906;28;20049;-86
2021/01/08 00:30:06;;;;;;;15.05;6.97;;;3.70;54.30;;;;;;5013061;28;20034;-86
2021/01/08 00:32:32;;;;;;;11.60;4.95;;;;;;;;;;5008973;28;20083;-86
2021/01/08 00:34:59;;;;;;;20.13;7.93;;;;;;;;;;5009403;28;20491;-85
2021/01/08 00:37:25;;;;;;;22.08;9.80;;;;;;;;;;5028886;28;20116;-87
2021/01/08 00:39:51;;;;;;;20.48;7.40;;;;;;;;;;5028930;28;20026;-87
2021/01/08 00:42:17;;;;;;;17.60;8.00;;;;;;;;;;5028729;28;20184;-87
2021/01/08 00:44:43;;;;;;;14.90;7.07;;;;;;;;;;5018707;28;20042;-86
2021/01/08 00:47:10;;;;;;;26.50;8.23;;;;;;;;;;5007794;28;20394;-87
2021/01/08 00:49:36;;;;;;;16.33;7.05;;;;;;;;;;5017492;28;20033;-87
2021/01/08 00:52:03;;;;;;;30.58;7.18;;;3.80;54.30;;;;;;5028497;28;20040;-87
2021/01/08 00:54:29;;;;;;;22.33;7.37;;;;;;;;;;5012346;28;20018;-86
2021/01/08 00:56:55;;;;;;;21.15;7.32;;;;;;;;;;5028575;28;20253;-87
2021/01/08 00:59:21;;;;;;;16.02;7.03;;;;;;;;;;5028425;28;20025;-86
2021/01/08 01:01:47;;;;;;;10.82;6.70;;;;;;;;;;5027831;28;20033;-86
2021/01/08 01:04:13;;;;;;;12.25;7.15;;;;;;;;;;5014260;28;20510;-86
2021/01/08 01:06:40;;;;;;;15.35;7.18;;;;;;;;;;5019679;28;20022;-87
2021/01/08 01:09:06;;;;;;;19.40;7.75;;;;;;;;;;5022711;28;20506;-86
2021/01/08 01:11:32;;;;;;;28.77;9.63;;;;;;;;;;5012494;28;20046;-86
2021/01/08 01:13:59;;;;;;;23.20;6.95;;;3.80;54.40;;;;;;5025142;28;20030;-87
2021/01/08 01:16:28;;;;;;;14.13;6.55;;;;;;;;;;5026998;28;20029;-86
2021/01/08 01:18:56;;;;;;;24.02;9.85;;;4.20;52.90;;;;;;5016094;28;20022;-86
2021/01/08 01:21:23;;;;;;;14.50;8.05;;;;;;;;;;4992219;28;20109;-86
2021/01/08 01:23:49;;;;;;;17.02;8.50;;;;;;;;;;5006998;28;20093;-87
2021/01/08 01:26:15;;;;;;;11.75;7.20;;;;;;;;;;5020884;28;20033;-86
2021/01/08 01:28:41;;;;;;;19.73;7.55;;;;;;;;;;5009368;28;20419;-86
2021/01/08 01:31:07;;;;;;;16.10;6.15;;;;;;;;;;4993373;28;20054;-86
2021/01/08 01:33:33;;;;;;;18.83;6.28;;;;;;;;;;5024633;28;20030;-86
2021/01/08 01:36:04;;;;;;;16.23;7.47;;;3.60;55.00;;;;;;5012921;28;20058;-86
2021/01/08 01:38:30;;;;;;;16.25;6.90;;;;;;;;;;4997454;28;20093;-86
2021/01/08 01:40:56;;;;;;;10.05;4.63;;;;;;;;;;5020631;28;20117;-86
2021/01/08 01:43:22;;;;;;;16.63;7.38;;;;;;;;;;5008457;28;20053;-86
2021/01/08 01:45:48;;;;;;;12.98;5.47;;;;;;;;;;5027338;28;20030;-86
2021/01/08 01:48:15;;;;;;;13.48;5.47;;;;;;;;;;5027816;28;20202;-87
2021/01/08 01:50:41;;;;;;;15.98;6.38;;;;;;;;;;5009028;28;20027;-86
2021/01/08 01:53:07;;;;;;;16.75;5.15;;;;;;;;;;5017639;28;20026;-87
2021/01/08 01:55:34;;;;;;;11.75;4.15;;;;;;;;;;5027861;28;20399;-86
2021/01/08 01:58:00;;;;;;;17.95;6.95;;;4.20;52.50;;;;;;5027954;28;20474;-86
2021/01/08 02:00:26;;;;;;;14.55;5.93;;;;;;;;;;4998182;28;20032;-87
2021/01/08 02:03:23;;;;;;;17.15;6.07;;;3.90;53.30;;;;;;5027745;28;20026;-86
2021/01/08 02:05:51;;;;;;;13.10;6.13;;;3.50;55.40;;;;;;5009122;28;20026;-86
2021/01/08 02:08:21;;;;;;;17.75;7.40;;;3.50;55.50;;;;;;5016308;28;20499;-86
2021/01/08 02:10:56;;;;;;;14.88;6.72;;;3.70;55.10;;;;;;5010583;28;20034;-87
2021/01/08 02:13:28;;;;;;;11.85;5.85;;;3.70;54.60;;;;;;5016766;28;20030;-87
2021/01/08 02:15:55;;;;;;;22.98;8.43;;;3.60;54.60;;;;;;5014747;28;20026;-87
2021/01/08 02:18:22;;;;;;;15.02;5.07;;;3.70;53.70;;;;;;5014968;28;20032;-86
2021/01/08 02:20:50;;;;;;;9.32;4.88;;;3.70;54.70;;;;;;5015791;28;20050;-86
2021/01/08 02:23:32;;;;;;;10.85;4.65;;;3.70;54.40;;;;;;5013105;28;20041;-87
2021/01/08 02:25:59;;;;;;;9.68;4.57;;;;;;;;;;5021432;28;20026;-87
2021/01/08 02:28:25;;;;;;;12.67;5.03;;;;;;;;;;5017252;28;20065;-86
2021/01/08 02:30:52;;;;;;;13.45;6.00;;;3.70;54.60;;;;;;5015959;28;20260;-87
2021/01/08 02:33:19;;;;;;;17.98;6.53;;;3.60;55.10;;;;;;5000625;28;20113;-86
2021/01/08 02:35:48;;;;;;;18.70;7.20;;;3.70;54.70;;;;;;5011333;28;20568;-86
2021/01/08 02:38:18;;;;;;;14.48;6.80;;;3.80;54.30;;;;;;5014164;28;20112;-86
2021/01/08 02:40:46;;;;;;;10.98;5.05;;;3.70;54.70;;;;;;5014292;28;20021;-86
2021/01/08 02:43:18;;;;;;;11.90;6.30;;;3.90;53.90;;;;;;5014477;28;20038;-86
2021/01/08 02:45:44;;;;;;;12.80;5.75;;;;;;;;;;5009567;28;20407;-86
2021/01/08 02:48:10;;;;;;;14.65;6.68;;;;;;;;;;5021753;28;20121;-87
2021/01/08 02:50:36;;;;;;;23.90;7.90;;;;;;;;;;5030519;28;20038;-86
2021/01/08 02:53:06;;;;;;;17.35;6.95;;;3.70;54.20;;;;;;5030666;28;20490;-87
2021/01/08 02:55:34;;;;;;;24.05;7.22;;;3.70;54.60;;;;;;5012881;28;20036;-86
2021/01/08 02:58:02;;;;;;;16.50;8.75;;;3.70;54.90;;;;;;5018438;28;20022;-86
2021/01/08 03:00:30;;;;;;;21.80;7.78;;;3.90;54.50;;;;;;5010966;28;20092;-86
2021/01/08 03:02:57;;;;;;;16.10;7.30;;;;;;;;;;5014172;28;20018;-87
2021/01/08 03:05:23;;;;;;;32.67;7.43;;;4.00;53.40;;;;;;5030649;28;20033;-86
2021/01/08 03:07:50;;;;;;;13.45;6.25;;;;;;;;;;5013959;28;20553;-86
2021/01/08 03:10:17;;;;;;;14.88;6.28;;;3.90;53.90;;;;;;5020042;28;20566;-86
2021/01/08 03:12:56;;;;;;;17.45;7.82;;;3.80;54.30;;;;;;5024804;28;20038;-87
2021/01/08 03:15:22;;;;;;;21.40;6.35;;;;;;;;;;5010303;28;20061;-87
2021/01/08 03:17:48;;;;;;;47.70;15.32;;;;;;;;;;5010560;28;20085;-86
2021/01/08 03:20:15;;;;;;;23.38;8.82;;;;;;;;;;5019301;28;20018;-86
2021/01/08 03:22:41;;;;;;;28.60;6.88;;;;;;;;;;5019759;28;20029;-87
2021/01/08 03:25:07;;;;;;;11.25;6.13;;;;;;;;;;5026263;28;20026;-86
2021/01/08 03:27:33;;;;;;;8.20;4.38;;;;;;;;;;5030142;28;20099;-87
2021/01/08 03:29:59;;;;;;;14.63;6.03;;;;;;;;;;5014683;28;20029;-86
2021/01/08 03:32:25;;;;;;;18.02;5.88;;;;;;;;;;5022506;28;20801;-87
2021/01/08 03:34:51;;;;;;;24.20;6.28;;;;;;;;;;5008320;28;20033;-86
2021/01/08 03:37:17;;;;;;;15.88;5.82;;;;;;;;;;5024780;28;20431;-86
2021/01/08 03:39:43;;;;;;;17.65;7.43;;;;;;;;;;5021524;28;20079;-87
2021/01/08 03:42:09;;;;;;;19.52;7.78;;;;;;;;;;5015925;28;20018;-86
2021/01/08 03:44:35;;;;;;;17.50;7.07;;;;;;;;;;5029974;28;20037;-86
2021/01/08 03:47:01;;;;;;;12.43;5.30;;;;;;;;;;5029744;28;20478;-86
2021/01/08 03:49:27;;;;;;;30.23;7.53;;;;;;;;;;5014358;28;20501;-86
2021/01/08 03:51:53;;;;;;;23.58;7.47;;;;;;;;;;5028449;28;20030;-87
2021/01/08 03:54:20;;;;;;;22.58;7.13;;;;;;;;;;5009805;28;20021;-86
2021/01/08 03:56:46;;;;;;;18.48;6.28;;;;;;;;;;5023436;28;20068;-86
2021/01/08 03:59:12;;;;;;;16.90;6.10;;;;;;;;;;5013780;28;20018;-87
2021/01/08 04:01:38;;;;;;;21.02;7.72;;;;;;;;;;5026140;28;20030;-86
2021/01/08 04:04:04;;;;;;;14.55;5.60;;;;;;;;;;5018540;28;20034;-87
2021/01/08 04:06:30;;;;;;;13.32;5.47;;;;;;;;;;5011993;28;20022;-87
2021/01/08 04:08:57;;;;;;;19.25;7.15;;;;;;;;;;5025929;28;20034;-86
2021/01/08 04:11:23;;;;;;;21.65;7.03;;;;;;;;;;5009387;28;20031;-87
2021/01/08 04:13:49;;;;;;;10.23;6.70;;;;;;;;;;5014708;28;20027;-87
2021/01/08 04:16:15;;;;;;;21.73;7.90;;;;;;;;;;5026109;28;20026;-87
2021/01/08 04:18:41;;;;;;;13.32;5.95;;;;;;;;;;5009874;28;20482;-86
2021/01/08 04:21:07;;;;;;;18.48;8.20;;;;;;;;;;5018397;28;20050;-87
2021/01/08 04:23:33;;;;;;;12.55;5.53;;;;;;;;;;5025881;28;20029;-86
2021/01/08 04:25:59;;;;;;;13.88;5.70;;;;;;;;;;5009248;28;20388;-87
2021/01/08 04:28:25;;;;;;;12.93;5.20;;;;;;;;;;5021406;28;20514;-86
2021/01/08 04:30:51;;;;;;;12.35;6.07;;;;;;;;;;4994204;28;20500;-87
2021/01/08 04:33:17;;;;;;;10.70;4.78;;;;;;;;;;5008890;28;20049;-86
2021/01/08 04:35:44;;;;;;;14.05;6.50;;;;;;;;;;5008472;28;20022;-87
2021/01/08 04:38:10;;;;;;;16.45;7.05;;;;;;;;;;4981529;28;20054;-86
2021/01/08 04:40:36;;;;;;;14.82;7.10;;;;;;;;;;5006697;28;20033;-87
2021/01/08 04:43:02;;;;;;;24.60;9.30;;;3.90;55.30;;;;;;5008209;28;20037;-87
2021/01/08 04:45:28;;;;;;;18.92;7.28;;;;;;;;;;4992898;28;20487;-87
2021/01/08 04:47:54;;;;;;;16.25;6.43;;;;;;;;;;5009354;28;20031;-86
2021/01/08 04:50:22;;;;;;;15.50;5.28;;;;;;;;;;5009028;28;20034;-87
2021/01/08 04:52:48;;;;;;;14.00;6.15;;;;;;;;;;4994314;28;20023;-87
2021/01/08 04:55:15;;;;;;;16.10;6.28;;;4.30;53.70;;;;;;4993922;28;20019;-86
2021/01/08 04:57:46;;;;;;;9.70;6.07;;;4.20;53.80;;;;;;4993827;28;20044;-87
2021/01/08 05:00:12;;;;;;;15.68;6.68;;;;;;;;;;5008782;28;20037;-87
2021/01/08 05:02:38;;;;;;;16.98;6.40;;;;;;;;;;5008718;28;20030;-87
2021/01/08 05:05:05;;;;;;;22.08;8.07;;;;;;;;;;5014209;28;20033;-86
2021/01/08 05:07:31;;;;;;;11.57;5.22;;;;;;;;;;5025301;28;20105;-86
2021/01/08 05:10:01;;;;;;;16.00;5.07;;;;;;;;;;5008960;28;20030;-87
2021/01/08 05:12:43;;;;;;;16.63;6.20;;;4.00;54.50;;;;;;5008660;28;20022;-87
2021/01/08 05:15:13;;;;;;;27.38;8.50;;;4.10;54.60;;;;;;4996686;28;20025;-86
2021/01/08 05:17:40;;;;;;;21.42;7.45;;;4.00;54.70;;;;;;5008299;28;20046;-87
2021/01/08 05:20:07;;;;;;;13.60;4.88;;;4.00;77.60;;;;;;4993768;28;20026;-86
2021/01/08 05:22:33;;;;;;;13.30;6.65;;;;;;;;;;4992367;28;20122;-87
2021/01/08 05:25:07;;;;;;;18.05;6.13;;;4.20;53.90;;;;;;5008606;28;20063;-86
2021/01/08 05:27:33;;;;;;;11.45;5.75;;;;;;;;;;4992338;28;20046;-87
2021/01/08 05:30:13;;;;;;;12.52;5.47;;;4.10;76.70;;;;;;5008758;28;20542;-86
2021/01/08 05:32:39;;;;;;;12.38;5.65;;;;;;;;;;4992383;28;20407;-87
2021/01/08 05:35:06;;;;;;;16.77;5.88;;;4.00;54.70;;;;;;5008422;28;20084;-85
2021/01/08 05:37:32;;;;;;;18.00;6.55;;;4.00;54.70;;;;;;4992363;28;20049;-87
2021/01/08 05:40:04;;;;;;;13.00;5.00;;;4.00;54.90;;;;;;5027007;28;20037;-86
2021/01/08 05:42:30;;;;;;;14.10;6.00;;;;;;;;;;5003474;28;20019;-87
2021/01/08 05:44:56;;;;;;;12.25;4.88;;;;;;;;;;5019847;28;20498;-86
2021/01/08 05:47:22;;;;;;;10.30;4.38;;;;;;;;;;5008512;28;20499;-86
2021/01/08 05:49:48;;;;;;;10.65;5.25;;;3.80;55.50;;;;;;5011706;28;20030;-86
2021/01/08 05:52:23;;;;;;;11.50;5.10;;;4.00;55.50;;;;;;4995916;28;20026;-87
2021/01/08 05:54:49;;;;;;;12.73;5.35;;;;;;;;;;5011338;28;20023;-87
2021/01/08 05:57:15;;;;;;;10.35;4.72;;;;;;;;;;5025693;28;20022;-86
2021/01/08 05:59:44;;;;;;;61.30;17.83;;;4.20;55.10;;;;;;5012188;28;20018;-87
2021/01/08 06:02:11;;;;;;;35.95;13.57;;;4.50;54.00;;;;;;5041316;28;20026;-87
2021/01/08 06:04:39;;;;;;;59.03;21.70;;;4.50;54.10;;;;;;5011691;28;20018;-87
2021/01/08 06:07:15;;;;;;;63.47;21.85;;;4.20;77.80;;;;;;5020767;28;20038;-87
2021/01/08 06:09:48;;;;;;;36.88;15.45;;;4.00;55.20;;;;;;4996838;28;20022;-87
2021/01/08 06:12:15;;;;;;;38.88;16.67;;;4.00;55.80;;;;;;5012006;28;20034;-86
2021/01/08 06:14:42;;;;;;;35.97;11.90;;;3.90;56.00;;;;;;4996690;28;20019;-86
2021/01/08 06:17:08;;;;;;;33.55;12.52;;;;;;;;;;5012188;28;20034;-86
2021/01/08 06:19:34;;;;;;;24.48;9.40;;;;;;;;;;5016082;28;20044;-86
2021/01/08 06:22:00;;;;;;;23.63;9.32;;;;;;;;;;5016603;28;20513;-86
2021/01/08 06:24:28;;;;;;;18.60;8.57;;;4.20;54.50;;;;;;5028224;28;20056;-86
2021/01/08 06:26:54;;;;;;;;;;;4.40;54.00;;;;;;4996266;28;20018;-86
2021/01/08 06:29:21;;;;;;;53.63;16.23;;;;;;;;;;5027550;28;19918;-86
2021/01/08 06:31:51;;;;;;;38.95;16.40;;;4.40;53.80;;;;;;5014050;28;20065;-88
2021/01/08 06:34:29;;;;;;;38.38;13.45;;;4.10;55.20;;;;;;5028125;28;20057;-86
2021/01/08 06:36:58;;;;;;;32.15;8.95;;;;;;;;;;5013833;28;20037;-87
2021/01/08 06:39:32;;;;;;;30.40;12.00;;;4.20;54.70;;;;;;5011564;28;20022;-87
2021/01/08 06:41:59;;;;;;;25.60;9.05;;;4.20;54.70;;;;;;5011611;28;20033;-87
2021/01/08 06:44:28;;;;;;;18.50;8.80;;;4.20;54.40;;;;;;5011013;28;20125;-87
2021/01/08 06:46:58;;;;;;;19.52;7.00;;;4.30;54.50;;;;;;4995720;28;20113;-87
2021/01/08 06:49:24;;;;;;;11.73;6.10;;;;;;;;;;5011049;28;20029;-87
2021/01/08 06:51:50;;;;;;;14.10;6.93;;;;;;;;;;5012660;28;20218;-87
2021/01/08 06:54:16;;;;;;;17.70;5.88;;;;;;;;;;5011234;28;20076;-87
2021/01/08 06:56:43;;;;;;;20.27;8.52;;;4.00;55.70;;;;;;4996984;28;20018;-87
2021/01/08 06:59:13;;;;;;;12.18;6.55;;;3.90;56.20;;;;;;5012880;28;20045;-87
2021/01/08 07:01:54;;;;;;;20.88;9.32;;;4.00;79.10;;;;;;4995502;28;20048;-86
2021/01/08 07:04:22;;;;;;;13.63;7.88;;;4.00;56.00;;;;;;5023621;28;20058;-87
2021/01/08 07:06:49;;;;;;;22.60;6.63;;;4.10;55.90;;;;;;4994041;28;20058;-86
2021/01/08 07:09:15;;;;;;;18.63;6.70;;;;;;;;;;5009624;28;20038;-85
2021/01/08 07:11:41;;;;;;;16.55;7.85;;;;;;;;;;5009999;28;20046;-87
2021/01/08 07:14:12;;;;;;;16.70;6.88;;;;;;;;;;5009652;28;20031;-87
2021/01/08 07:16:46;;;;;;;12.45;4.80;;;3.80;79.40;;;;;;5009887;28;20026;-85
2021/01/08 07:19:14;;;;;;;10.85;6.35;;;3.90;56.90;;;;;;4993689;28;20037;-86
2021/01/08 07:21:50;;;;;;;23.48;6.95;;;4.40;55.80;;;;;;5009615;28;20026;-85
2021/01/08 07:24:18;;;;;;;21.75;6.40;;;4.60;55.20;;;;;;4995482;28;20030;-86
2021/01/08 07:26:46;;;;;;;24.05;8.90;;;;;;;;;;5010011;28;20023;-86
2021/01/08 07:29:13;;;;;;;24.10;8.05;;;;;;;;;;5010135;28;20042;-86
2021/01/08 07:31:40;;;;;;;14.13;6.88;;;4.20;56.10;;;;;;5023546;28;20021;-84
2021/01/08 07:34:07;;;;;;;17.63;6.25;;;;;;;;;;5010110;28;20022;-86
2021/01/08 07:36:37;;;;;;;22.15;7.50;;;;;;;;;;4993474;28;20089;-86
2021/01/08 07:39:28;;;;;;;18.58;8.60;;;;;;;;;;5010542;28;20041;-85
2021/01/08 07:49:41;;;;;;;26.80;8.52;;;;;;;;;;4801387;26;20039;-87
2021/01/08 07:52:08;;;;;;;21.73;8.57;;;;;;;;;;4974093;28;20042;-84
2021/01/08 07:54:54;;;;;;;24.83;10.63;;;4.40;56.70;;;;;;4952082;29;20024;-84
2021/01/08 07:57:25;;;;;;;15.02;7.55;;;;;;;;;;4953501;28;20037;-85
2021/01/08 07:59:54;;;;;;;15.00;6.90;;;;;;;;;;4951221;28;20483;-86
2021/01/08 08:02:20;;;;;;;23.50;7.38;;;;;;;;;;4969975;28;20034;-86
2021/01/08 08:04:50;;;;;;;21.75;6.63;;;4.40;57.40;;;;;;4967557;28;20027;-85
2021/01/08 08:07:22;;;;;;;14.38;8.25;;;4.60;56.70;;;;;;4952271;28;20062;-85
2021/01/08 08:09:57;;;;;;;19.52;6.30;;;;;;;;;;4953119;28;20038;-85
2021/01/08 08:12:24;;;;;;;18.95;5.03;;;;;;;;;;4976110;28;20078;-86
2021/01/08 08:14:59;;;;;;;15.85;7.07;;;4.80;55.70;;;;;;4976770;28;20023;-87
2021/01/08 08:17:25;;;;;;;13.05;8.27;;;;;;;;;;4966901;28;20039;-86
2021/01/08 08:19:52;;;;;;;28.42;8.57;;;4.90;55.60;;;;;;4969592;28;20034;-88
2021/01/08 08:22:35;;;;;;;18.42;6.43;;;4.90;55.20;;;;;;4966722;28;20039;-86
2021/01/08 08:25:13;;;;;;;18.42;7.15;;;;;;;;;;4958897;28;20514;-86
2021/01/08 08:27:39;;;;;;;17.83;6.80;;;;;;;;;;4968917;28;20027;-85
2021/01/08 08:30:14;;;;;;;18.38;7.95;;;4.90;55.80;;;;;;4974345;28;20495;-85
2021/01/08 08:32:40;;;;;;;15.30;8.80;;;;;;;;;;4953210;28;20510;-85
2021/01/08 08:35:08;;;;;;;19.08;7.35;;;4.80;56.00;;;;;;4952740;28;20026;-86
2021/01/08 08:37:34;;;;;;;11.70;7.50;;;;;;;;;;4952081;28;20515;-85
2021/01/08 08:40:03;;;;;;;34.47;11.57;;;5.00;55.50;;;;;;4951956;28;20514;-86
2021/01/08 08:42:29;;;;;;;22.15;11.57;;;;;;;;;;4968049;28;20027;-85
2021/01/08 08:44:55;;;;;;;25.05;9.25;;;;;;;;;;4978022;28;20054;-87
2021/01/08 08:47:21;;;;;;;17.98;6.55;;;;;;;;;;4968921;28;20023;-88
2021/01/08 08:49:47;;;;;;;20.75;7.78;;;;;;;;;;4966111;28;20051;-85
2021/01/08 08:52:26;;;;;;;17.85;6.65;;;4.70;55.80;;;;;;4972689;28;20451;-87
2021/01/08 08:54:52;;;;;;;21.73;7.32;;;;;;;;;;4967462;28;20054;-85
2021/01/08 08:57:21;;;;;;;9.65;4.68;;;4.90;56.20;;;;;;4969583;28;20134;-88
2021/01/08 08:59:47;;;;;;;27.70;8.60;;;;;;;;;;4971589;28;20027;-87
2021/01/08 09:02:16;;;;;;;12.95;5.35;;;;;;;;;;4966761;28;20038;-86
2021/01/08 09:04:58;;;;;;;13.95;6.25;;;4.90;79.80;;;;;;4953383;29;20042;-86
2021/01/08 09:07:46;;;;;;;10.35;5.18;;;4.70;57.00;;;;;;4965392;28;20063;-87
2021/01/08 09:10:19;;;;;;;19.17;5.95;;;4.80;56.40;;;;;;4964034;28;20035;-86
2021/01/08 09:12:55;;;;;;;17.85;5.45;;;;;;;;;;4966232;28;20835;-85
2021/01/08 09:15:34;;;;;;;6.43;3.35;;;5.00;55.90;;;;;;4952849;28;20058;-86
2021/01/08 09:18:38;;;;;;;21.05;8.05;;;5.00;54.50;;;;;;4967355;28;20035;-86
2021/01/08 09:21:24;;;;;;;8.60;5.03;;;4.90;62.90;;;;;;4946517;28;20046;-84
2021/01/08 09:23:53;;;;;;;7.10;3.10;;;4.90;55.80;;;;;;4965635;28;20027;-87
2021/01/08 09:26:20;;;;;;;22.25;7.07;;;4.90;56.30;;;;;;4957123;28;20030;-89
2021/01/08 09:28:52;;;;;;;12.75;6.18;;;4.90;55.40;;;;;;4954264;28;20430;-86
2021/01/08 09:31:18;;;;;;;14.45;4.72;;;;;;;;;;4970410;28;20038;-86
2021/01/08 09:33:57;;;;;;;9.82;4.05;;;5.20;53.90;;;;;;4956275;28;20568;-84
2021/01/08 09:36:31;;;;;;;8.60;4.65;;;5.60;69.10;;;;;;4959700;28;20026;-83
2021/01/08 09:39:05;;;;;;;8.68;4.43;;;5.50;52.60;;;;;;4951235;28;20028;-88
2021/01/08 09:41:35;;;;;;;16.17;5.65;;;5.40;52.80;;;;;;4969871;28;20031;-87
2021/01/08 09:44:03;;;;;;;9.57;5.00;;;5.40;52.10;;;;;;4971875;28;20045;-89
2021/01/08 09:46:29;;;;;;;12.18;3.72;;;;;;;;;;4955501;28;20031;-87
2021/01/08 09:48:55;;;;;;;18.83;6.75;;;;;;;;;;4971402;28;20754;-86
2021/01/08 09:51:22;;;;;;;15.95;6.20;;;;;;;;;;4968107;28;20494;-87
2021/01/08 09:53:55;;;;;;;13.93;4.97;;;5.50;51.90;;;;;;4958545;28;20027;-86
2021/01/08 09:56:21;;;;;;;18.05;5.60;;;;;;;;;;4968297;28;20027;-87
2021/01/08 09:59:07;;;;;;;12.15;5.82;;;5.60;51.60;;;;;;4956834;28;20050;-85
2021/01/08 10:01:51;;;;;;;13.70;4.38;;;;;;;;;;4961890;28;20102;-86
2021/01/08 10:04:28;;;;;;;9.98;4.55;;;5.70;51.80;;;;;;4970912;28;20024;-86
2021/01/08 10:07:20;;;;;;;11.75;4.55;;;5.50;50.90;;;;;;4955335;28;20046;-87
2021/01/08 10:09:52;;;;;;;10.15;5.10;;;5.00;51.90;;;;;;4952531;29;20043;-86
2021/01/08 10:12:22;;;;;;;17.02;7.40;;;;;;;;;;4956694;28;20670;-86
2021/01/08 10:14:48;;;;;;;13.68;4.22;;;;;;;;;;4971166;28;20544;-86
2021/01/08 10:17:16;;;;;;;12.07;4.53;;;5.30;52.70;;;;;;4971320;28;20027;-87
2021/01/08 10:19:44;;;;;;;11.77;4.50;;;5.80;52.10;;;;;;4968490;28;20166;-84
2021/01/08 10:22:10;;;;;;;17.45;4.47;;;;;;;;;;4965672;28;20043;-86
2021/01/08 10:24:38;;;;;;;12.15;4.63;;;;;;;;;;4970163;28;20031;-91
2021/01/08 10:27:04;;;;;;;21.85;5.68;;;;;;;;;;4962540;28;20451;-87
2021/01/08 10:29:41;;;;;;;9.70;4.70;;;;;;;;;;4970835;28;20039;-87
2021/01/08 10:32:09;;;;;;;9.48;4.80;;;6.20;49.90;;;;;;4969323;28;20114;-86
2021/01/08 10:34:39;;;;;;;12.18;6.47;;;6.50;48.40;;;;;;4970260;28;20028;-89
2021/01/08 10:37:06;;;;;;;13.35;6.03;;;;;;;;;;4951512;29;20034;-87
2021/01/08 10:39:32;;;;;;;10.20;5.43;;;;;;;;;;4970833;28;20024;-87
2021/01/08 10:41:58;;;;;;;13.55;5.57;;;;;;;;;;4968674;28;20112;-88
2021/01/08 10:44:24;;;;;;;11.15;4.55;;;;;;;;;;4971323;28;20533;-88
2021/01/08 10:46:50;;;;;;;14.50;6.22;;;;;;;;;;4971231;28;20019;-87
2021/01/08 10:49:17;;;;;;;9.98;4.75;;;;;;;;;;4971599;28;20146;-85
2021/01/08 10:51:43;;;;;;;11.68;4.70;;;;;;;;;;4951555;28;20415;-87
2021/01/08 10:54:15;;;;;;;11.82;5.18;;;;;;;;;;4959372;28;20424;-86
2021/01/08 10:56:41;;;;;;;16.38;5.80;;;;;;;;;;4971758;28;20020;-86
2021/01/08 10:59:07;;;;;;;17.58;5.72;;;;;;;;;;4970460;28;20027;-87
2021/01/08 11:01:41;;;;;;;18.75;6.00;;;6.40;49.30;;;;;;4969115;28;20029;-87
2021/01/08 11:04:07;;;;;;;11.60;5.63;;;;;;;;;;4954964;28;20081;-87
2021/01/08 11:06:33;;;;;;;13.45;5.85;;;;;;;;;;4966527;28;20078;-88
2021/01/08 11:08:59;;;;;;;10.80;5.90;;;;;;;;;;4970297;28;20106;-86
2021/01/08 11:11:25;;;;;;;18.73;6.63;;;;;;;;;;4957255;28;20037;-88
2021/01/08 11:13:51;;;;;;;13.80;4.32;;;;;;;;;;4955903;28;20031;-87
2021/01/08 11:16:18;;;;;;;24.77;8.52;;;;;;;;;;4955299;28;20046;-88
2021/01/08 11:18:44;;;;;;;19.65;6.97;;;;;;;;;;4971018;28;20514;-86
2021/01/08 11:21:17;;;;;;;8.80;4.90;;;;;;;;;;4967375;28;20543;-87
2021/01/08 11:23:43;;;;;;;12.20;5.30;;;;;;;;;;4954828;28;20511;-86
2021/01/08 11:26:09;;;;;;;16.85;5.47;;;;;;;;;;4970071;28;20515;-87
2021/01/08 11:28:35;;;;;;;17.52;5.07;;;;;;;;;;4969777;28;20050;-87
2021/01/08 11:31:01;;;;;;;9.15;4.38;;;;;;;;;;4952814;28;20402;-86
2021/01/08 11:33:27;;;;;;;12.35;4.88;;;;;;;;;;4969918;28;20114;-86
2021/01/08 11:35:54;;;;;;;7.15;3.70;;;;;;;;;;4970168;28;20027;-87
2021/01/08 11:38:20;;;;;;;13.43;3.83;;;;;;;;;;4962730;28;20111;-87
2021/01/08 11:40:46;;;;;;;10.25;4.70;;;;;;;;;;4967644;28;20034;-86
2021/01/08 11:43:12;;;;;;;11.40;4.30;;;;;;;;;;4954029;28;20042;-86
2021/01/08 11:45:38;;;;;;;14.13;5.55;;;;;;;;;;4954044;28;20082;-86
2021/01/08 11:48:04;;;;;;;14.23;5.85;;;;;;;;;;4954374;28;20058;-85
2021/01/08 11:50:30;;;;;;;9.57;4.07;;;;;;;;;;4970465;28;20082;-86
2021/01/08 11:52:56;;;;;;;7.45;4.90;;;;;;;;;;4969103;28;20031;-86
2021/01/08 11:55:22;;;;;;;16.45;5.95;;;;;;;;;;4968798;28;20491;-86
2021/01/08 11:57:48;;;;;;;12.85;5.13;;;;;;;;;;4969419;28;20042;-86
2021/01/08 12:00:14;;;;;;;9.68;5.10;;;;;;;;;;4952487;28;20411;-88
2021/01/08 12:02:42;;;;;;;11.02;4.55;;;;;;;;;;4951421;28;20027;-88
2021/01/08 12:05:09;;;;;;;13.43;6.32;;;6.10;49.00;;;;;;4954490;28;20106;-88
2021/01/08 12:07:35;;;;;;;9.80;3.83;;;;;;;;;;4966788;28;20039;-89
2021/01/08 12:10:01;;;;;;;13.32;5.05;;;;;;;;;;4967989;28;20089;-88
2021/01/08 12:12:27;;;;;;;11.80;5.35;;;;;;;;;;4953057;28;20065;-86
2021/01/08 12:14:53;;;;;;;12.95;5.22;;;;;;;;;;4958987;28;20038;-86
2021/01/08 12:17:19;;;;;;;10.55;5.43;;;;;;;;;;4953022;28;20139;-86
2021/01/08 12:19:45;;;;;;;9.57;3.97;;;;;;;;;;4967241;28;20034;-87
2021/01/08 12:22:12;;;;;;;15.43;5.63;;;;;;;;;;4964771;28;20027;-87
2021/01/08 12:24:38;;;;;;;10.93;6.15;;;;;;;;;;4966839;28;20458;-87
2021/01/08 12:27:04;;;;;;;12.95;4.28;;;;;;;;;;4968369;28;20127;-86
2021/01/08 12:29:31;;;;;;;10.02;5.15;;;;;;;;;;4952198;28;20035;-86
2021/01/08 12:32:04;;;;;;;;;;;3.50;45.60;;;;;;4966220;28;20039;-85
2021/01/08 12:34:31;;;;;;;12.43;3.35;;;;;;;;;;4951521;28;19922;-86
2021/01/08 12:36:57;;;;;;;16.27;6.13;;;;;;;;;;4972721;28;20046;-85
2021/01/08 12:39:23;;;;;;;8.40;3.90;;;;;;;;;;4953836;28;20895;-85
2021/01/08 12:41:49;;;;;;;15.07;5.32;;;;;;;;;;4965702;28;20098;-85
2021/01/08 12:44:16;;;;;;;7.32;4.30;;;;;;;;;;4968747;28;20027;-87
2021/01/08 12:46:42;;;;;;;10.77;4.15;;;;;;;;;;4968527;28;20030;-87
2021/01/08 12:49:08;;;;;;;6.28;3.95;;;;;;;;;;4955290;28;20043;-87
2021/01/08 12:51:34;;;;;;;12.13;5.75;;;;;;;;;;4964663;28;20055;-90
2021/01/08 12:54:01;;;;;;;9.48;3.55;;;;;;;;;;4952991;28;20035;-89
2021/01/08 12:56:28;;;;;;;13.52;4.13;;;7.10;45.60;;;;;;4967124;28;20023;-89
2021/01/08 12:58:54;;;;;;;11.13;4.25;;;;;;;;;;4950540;28;20030;-89
2021/01/08 13:01:20;;;;;;;10.85;4.05;;;;;;;;;;4957036;28;20054;-89
2021/01/08 13:03:47;;;;;;;12.25;6.40;;;;;;;;;;4970405;28;20035;-91
2021/01/08 13:06:24;;;;;;;7.80;3.28;;;7.40;44.60;;;;;;4966872;28;20030;-86
2021/01/08 13:08:50;;;;;;;15.20;4.68;;;;;;;;;;4953516;28;20034;-86
2021/01/08 13:11:17;;;;;;;11.80;4.15;;;;;;;;;;4965833;28;20035;-88
2021/01/08 13:13:43;;;;;;;8.43;3.97;;;;;;;;;;4966771;28;20118;-88
2021/01/08 13:16:09;;;;;;;9.88;3.70;;;;;;;;;;4968658;28;20023;-89
2021/01/08 13:18:35;;;;;;;14.50;5.28;;;;;;;;;;4969193;28;20547;-88
2021/01/08 13:21:01;;;;;;;13.02;4.43;;;;;;;;;;4965930;28;20138;-85
2021/01/08 13:23:27;;;;;;;7.60;4.35;;;;;;;;;;4967490;28;20061;-87
2021/01/08 13:25:53;;;;;;;11.10;4.32;;;;;;;;;;4950974;28;20024;-86
2021/01/08 13:28:19;;;;;;;17.17;4.72;;;;;;;;;;4953980;28;20038;-88
2021/01/08 13:30:47;;;;;;;7.00;3.72;;;;;;;;;;4966421;28;20027;-87
2021/01/08 13:33:13;;;;;;;11.45;4.57;;;;;;;;;;4953296;28;20076;-89
2021/01/08 13:35:39;;;;;;;9.95;3.70;;;;;;;;;;4952556;28;20059;-90
2021/01/08 13:38:06;;;;;;;12.60;4.22;;;;;;;;;;4968063;28;20586;-88
2021/01/08 13:40:32;;;;;;;6.65;3.35;;;;;;;;;;4951607;28;20102;-84
2021/01/08 13:42:58;;;;;;;8.90;3.10;;;;;;;;;;4968123;28;20439;-86
2021/01/08 13:45:24;;;;;;;8.70;4.35;;;;;;;;;;4964539;28;20058;-88
2021/01/08 13:47:50;;;;;;;13.25;4.80;;;;;;;;;;4951441;28;20039;-89
2021/01/08 13:50:16;;;;;;;7.53;2.95;;;;;;;;;;4966636;28;20071;-85
2021/01/08 13:52:42;;;;;;;13.35;3.50;;;;;;;;;;4967181;28;20031;-87
2021/01/08 13:55:08;;;;;;;8.40;3.42;;;;;;;;;;4968442;28;20028;-89
2021/01/08 13:57:34;;;;;;;9.23;2.60;;;;;;;;;;4968303;28;20019;-89
2021/01/08 14:00:01;;;;;;;5.97;3.05;;;;;;;;;;4966898;28;20036;-89
2021/01/08 14:02:27;;;;;;;4.68;2.17;;;;;;;;;;4963201;28;20030;-89
2021/01/08 14:04:56;;;;;;;6.30;3.00;;;;;;;;;;4946140;28;20533;-88
2021/01/08 14:07:22;;;;;;;4.15;2.90;;;;;;;;;;4967524;28;20035;-87
2021/01/08 14:09:48;;;;;;;9.35;3.33;;;;;;;;;;4968038;28;20066;-87